sensor_id;sensor_type;location;lat;lon;timestamp;pressure;altitude;pressure_sealevel;temperature;humidity
20942;BME280;10630;53.734;10.282;2023-04-24T00:01:46;99652.72;;;18.63;71.49
20942;BME280;10630;53.734;10.282;2023-04-24T00:04:13;99643.91;;;18.85;69.54
20942;BME280;10630;53.734;10.282;2023-04-24T00:06:44;99640.16;;;19.03;70.29
20942;BME280;10630;53.734;10.282;2023-04-24T00:09:15;99647.34;;;18.63;72.27
20942;BME280;10630;53.734;10.282;2023-04-24T00:11:44;99633.13;;;18.67;72.50
20942;BME280;10630;53.734;10.282;2023-04-24T00:14:11;99629.00;;;19.16;69.36
20942;BME280;10630;53.734;10.282;2023-04-24T00:16:39;99622.81;;;18.98;70.08
20942;BME280;10630;53.734;10.282;2023-04-24T00:19:05;99622.09;;;19.25;68.84
20942;BME280;10630;53.734;10.282;2023-04-24T00:21:32;99618.44;;;19.37;68.26
20942;BME280;10630;53.734;10.282;2023-04-24T00:23:59;99611.19;;;19.15;69.27
20942;BME280;10630;53.734;10.282;2023-04-24T00:26:26;99604.97;;;19.14;69.52
20942;BME280;10630;53.734;10.282;2023-04-24T00:28:52;99598.31;;;18.83;70.21
20942;BME280;10630;53.734;10.282;2023-04-24T00:31:19;99593.44;;;18.97;70.16
20942;BME280;10630;53.734;10.282;2023-04-24T00:33:46;99592.31;;;18.76;70.75
20942;BME280;10630;53.734;10.282;2023-04-24T00:36:12;99581.25;;;18.77;71.16
20942;BME280;10630;53.734;10.282;2023-04-24T00:38:39;99580.69;;;18.92;70.36
20942;BME280;10630;53.734;10.282;2023-04-24T00:41:06;99593.03;;;18.71;70.80
20942;BME280;10630;53.734;10.282;2023-04-24T00:43:33;99585.03;;;18.93;71.03
20942;BME280;10630;53.734;10.282;2023-04-24T00:46:00;99580.69;;;19.37;68.14
20942;BME280;10630;53.734;10.282;2023-04-24T00:48:28;99580.00;;;19.24;67.84
20942;BME280;10630;53.734;10.282;2023-04-24T00:50:54;99578.81;;;19.15;68.40
20942;BME280;10630;53.734;10.282;2023-04-24T00:53:21;99587.41;;;19.12;68.72
20942;BME280;10630;53.734;10.282;2023-04-24T00:55:48;99587.22;;;18.96;70.38
20942;BME280;10630;53.734;10.282;2023-04-24T00:58:15;99587.53;;;18.83;70.93
20942;BME280;10630;53.734;10.282;2023-04-24T01:00:41;99579.44;;;19.22;69.00
20942;BME280;10630;53.734;10.282;2023-04-24T01:03:09;99576.16;;;19.42;66.42
20942;BME280;10630;53.734;10.282;2023-04-24T01:05:37;99581.66;;;18.86;68.56
20942;BME280;10630;53.734;10.282;2023-04-24T01:08:03;99575.91;;;18.60;71.58
20942;BME280;10630;53.734;10.282;2023-04-24T01:10:31;99582.34;;;18.76;71.13
20942;BME280;10630;53.734;10.282;2023-04-24T01:12:59;99568.34;;;19.19;69.08
20942;BME280;10630;53.734;10.282;2023-04-24T01:15:26;99575.22;;;18.87;69.09
20942;BME280;10630;53.734;10.282;2023-04-24T01:17:52;99560.38;;;19.07;68.12
20942;BME280;10630;53.734;10.282;2023-04-24T01:20:20;99559.94;;;19.15;68.24
20942;BME280;10630;53.734;10.282;2023-04-24T01:22:47;99572.19;;;19.01;68.46
20942;BME280;10630;53.734;10.282;2023-04-24T01:25:14;99564.59;;;19.20;67.77
20942;BME280;10630;53.734;10.282;2023-04-24T01:27:41;99562.00;;;19.08;68.49
20942;BME280;10630;53.734;10.282;2023-04-24T01:30:08;99566.97;;;19.16;67.93
20942;BME280;10630;53.734;10.282;2023-04-24T01:32:35;99575.22;;;18.87;68.83
20942;BME280;10630;53.734;10.282;2023-04-24T01:35:02;99565.13;;;18.60;71.37
20942;BME280;10630;53.734;10.282;2023-04-24T01:37:29;99565.72;;;19.02;69.02
20942;BME280;10630;53.734;10.282;2023-04-24T01:39:58;99561.63;;;19.21;68.22
20942;BME280;10630;53.734;10.282;2023-04-24T01:42:25;99549.81;;;19.00;68.63
20942;BME280;10630;53.734;10.282;2023-04-24T01:44:52;99553.81;;;17.90;74.54
20942;BME280;10630;53.734;10.282;2023-04-24T01:47:18;99550.69;;;18.89;70.10
20942;BME280;10630;53.734;10.282;2023-04-24T01:49:45;99544.47;;;19.05;67.86
20942;BME280;10630;53.734;10.282;2023-04-24T01:52:14;99545.53;;;18.65;70.31
20942;BME280;10630;53.734;10.282;2023-04-24T01:54:41;99550.00;;;18.76;67.63
20942;BME280;10630;53.734;10.282;2023-04-24T01:57:07;99542.31;;;18.46;68.72
20942;BME280;10630;53.734;10.282;2023-04-24T01:59:36;99549.06;;;18.65;68.66
20942;BME280;10630;53.734;10.282;2023-04-24T02:02:03;99550.88;;;18.82;67.37
20942;BME280;10630;53.734;10.282;2023-04-24T02:04:29;99541.72;;;18.83;66.30
20942;BME280;10630;53.734;10.282;2023-04-24T02:06:56;99543.38;;;18.62;66.34
20942;BME280;10630;53.734;10.282;2023-04-24T02:09:22;99540.63;;;18.06;70.64
20942;BME280;10630;53.734;10.282;2023-04-24T02:11:49;99541.41;;;18.57;68.68
20942;BME280;10630;53.734;10.282;2023-04-24T02:14:16;99539.13;;;18.32;70.35
20942;BME280;10630;53.734;10.282;2023-04-24T02:16:42;99542.34;;;18.29;70.32
20942;BME280;10630;53.734;10.282;2023-04-24T02:19:10;99539.25;;;18.59;67.58
20942;BME280;10630;53.734;10.282;2023-04-24T02:21:36;99533.06;;;18.59;67.36
20942;BME280;10630;53.734;10.282;2023-04-24T02:24:03;99533.00;;;18.37;69.30
20942;BME280;10630;53.734;10.282;2023-04-24T02:26:30;99532.16;;;17.97;69.05
20942;BME280;10630;53.734;10.282;2023-04-24T02:28:57;99530.16;;;18.43;67.51
20942;BME280;10630;53.734;10.282;2023-04-24T02:31:24;99531.06;;;18.49;66.07
20942;BME280;10630;53.734;10.282;2023-04-24T02:33:50;99540.28;;;18.36;66.68
20942;BME280;10630;53.734;10.282;2023-04-24T02:36:17;99529.41;;;18.48;65.66
20942;BME280;10630;53.734;10.282;2023-04-24T02:38:44;99535.22;;;18.40;65.95
20942;BME280;10630;53.734;10.282;2023-04-24T02:41:10;99536.88;;;18.24;66.60
20942;BME280;10630;53.734;10.282;2023-04-24T02:43:37;99534.19;;;18.24;67.62
20942;BME280;10630;53.734;10.282;2023-04-24T02:46:03;99533.66;;;18.44;66.10
20942;BME280;10630;53.734;10.282;2023-04-24T02:48:31;99532.59;;;18.45;65.76
20942;BME280;10630;53.734;10.282;2023-04-24T02:50:57;99530.91;;;18.39;66.82
20942;BME280;10630;53.734;10.282;2023-04-24T02:53:24;99523.13;;;18.42;65.89
20942;BME280;10630;53.734;10.282;2023-04-24T02:55:51;99527.34;;;18.16;66.11
20942;BME280;10630;53.734;10.282;2023-04-24T02:58:18;99525.84;;;17.91;67.34
20942;BME280;10630;53.734;10.282;2023-04-24T03:00:46;99524.38;;;17.83;68.67
20942;BME280;10630;53.734;10.282;2023-04-24T03:03:13;99526.75;;;17.80;69.31
20942;BME280;10630;53.734;10.282;2023-04-24T03:05:40;99520.38;;;17.86;68.41
20942;BME280;10630;53.734;10.282;2023-04-24T03:08:07;99517.53;;;17.93;66.92
20942;BME280;10630;53.734;10.282;2023-04-24T03:10:33;99516.06;;;17.85;68.13
20942;BME280;10630;53.734;10.282;2023-04-24T03:13:00;99527.97;;;17.89;67.38
20942;BME280;10630;53.734;10.282;2023-04-24T03:15:27;99526.25;;;17.83;68.01
20942;BME280;10630;53.734;10.282;2023-04-24T03:17:54;99526.09;;;17.72;67.38
20942;BME280;10630;53.734;10.282;2023-04-24T03:20:22;99525.97;;;17.67;67.86
20942;BME280;10630;53.734;10.282;2023-04-24T03:22:49;99523.44;;;17.32;67.64
20942;BME280;10630;53.734;10.282;2023-04-24T03:25:15;99526.56;;;17.86;67.42
20942;BME280;10630;53.734;10.282;2023-04-24T03:27:42;99523.00;;;17.52;67.29
20942;BME280;10630;53.734;10.282;2023-04-24T03:30:08;99525.16;;;17.50;67.34
20942;BME280;10630;53.734;10.282;2023-04-24T03:32:35;99523.28;;;17.67;67.19
20942;BME280;10630;53.734;10.282;2023-04-24T03:35:03;99521.00;;;17.59;66.92
20942;BME280;10630;53.734;10.282;2023-04-24T03:37:30;99517.38;;;17.07;68.62
20942;BME280;10630;53.734;10.282;2023-04-24T03:39:57;99520.25;;;17.18;70.14
20942;BME280;10630;53.734;10.282;2023-04-24T03:42:24;99518.06;;;17.03;69.44
20942;BME280;10630;53.734;10.282;2023-04-24T03:44:52;99524.41;;;16.97;71.46
20942;BME280;10630;53.734;10.282;2023-04-24T03:47:19;99521.00;;;17.30;68.64
20942;BME280;10630;53.734;10.282;2023-04-24T03:49:46;99528.28;;;16.89;68.47
20942;BME280;10630;53.734;10.282;2023-04-24T03:52:12;99518.81;;;17.27;68.43
20942;BME280;10630;53.734;10.282;2023-04-24T03:54:39;99521.50;;;16.74;68.80
20942;BME280;10630;53.734;10.282;2023-04-24T03:57:06;99511.22;;;16.95;69.04
20942;BME280;10630;53.734;10.282;2023-04-24T03:59:33;99517.91;;;17.21;67.28
20942;BME280;10630;53.734;10.282;2023-04-24T04:02:00;99522.22;;;16.82;68.14
20942;BME280;10630;53.734;10.282;2023-04-24T04:04:26;99526.63;;;17.00;68.35
20942;BME280;10630;53.734;10.282;2023-04-24T04:06:53;99518.97;;;17.20;66.76
20942;BME280;10630;53.734;10.282;2023-04-24T04:09:20;99521.00;;;16.89;67.48
20942;BME280;10630;53.734;10.282;2023-04-24T04:11:47;99528.19;;;16.36;69.40
20942;BME280;10630;53.734;10.282;2023-04-24T04:14:14;99519.03;;;16.97;68.31
20942;BME280;10630;53.734;10.282;2023-04-24T04:16:42;99521.91;;;16.54;69.24
20942;BME280;10630;53.734;10.282;2023-04-24T04:19:09;99514.41;;;16.56;67.69
20942;BME280;10630;53.734;10.282;2023-04-24T04:21:37;99516.00;;;16.93;67.05
20942;BME280;10630;53.734;10.282;2023-04-24T04:24:03;99518.97;;;17.20;64.58
20942;BME280;10630;53.734;10.282;2023-04-24T04:26:31;99512.16;;;16.89;66.11
20942;BME280;10630;53.734;10.282;2023-04-24T04:29:01;99519.41;;;16.65;67.76
20942;BME280;10630;53.734;10.282;2023-04-24T04:31:29;99518.97;;;16.56;66.71
20942;BME280;10630;53.734;10.282;2023-04-24T04:33:57;99527.59;;;16.82;67.44
20942;BME280;10630;53.734;10.282;2023-04-24T04:36:25;99534.84;;;16.45;66.91
20942;BME280;10630;53.734;10.282;2023-04-24T04:38:52;99530.19;;;16.41;68.21
20942;BME280;10630;53.734;10.282;2023-04-24T04:41:20;99522.41;;;16.92;66.31
20942;BME280;10630;53.734;10.282;2023-04-24T04:43:47;99524.66;;;16.83;64.97
20942;BME280;10630;53.734;10.282;2023-04-24T04:46:17;99533.78;;;16.70;65.45
20942;BME280;10630;53.734;10.282;2023-04-24T04:48:44;99544.88;;;16.50;66.17
20942;BME280;10630;53.734;10.282;2023-04-24T04:51:12;99539.47;;;16.86;65.67
20942;BME280;10630;53.734;10.282;2023-04-24T04:53:39;99523.72;;;16.77;65.13
20942;BME280;10630;53.734;10.282;2023-04-24T04:56:06;99539.41;;;16.69;64.00
20942;BME280;10630;53.734;10.282;2023-04-24T04:58:34;99541.03;;;16.70;64.27
20942;BME280;10630;53.734;10.282;2023-04-24T05:01:00;99531.00;;;17.18;63.08
20942;BME280;10630;53.734;10.282;2023-04-24T05:03:27;99541.16;;;16.63;64.33
20942;BME280;10630;53.734;10.282;2023-04-24T05:05:54;99540.44;;;16.68;63.61
20942;BME280;10630;53.734;10.282;2023-04-24T05:08:21;99528.03;;;16.78;63.27
20942;BME280;10630;53.734;10.282;2023-04-24T05:10:50;99525.00;;;17.28;62.23
20942;BME280;10630;53.734;10.282;2023-04-24T05:13:17;99525.81;;;17.28;60.74
20942;BME280;10630;53.734;10.282;2023-04-24T05:15:57;99523.09;;;16.87;63.22
20942;BME280;10630;53.734;10.282;2023-04-24T05:18:25;99521.16;;;17.52;60.83
20942;BME280;10630;53.734;10.282;2023-04-24T05:20:51;99520.50;;;17.62;60.41
20942;BME280;10630;53.734;10.282;2023-04-24T05:23:18;99530.16;;;17.92;58.70
20942;BME280;10630;53.734;10.282;2023-04-24T05:25:45;99528.78;;;17.72;59.20
20942;BME280;10630;53.734;10.282;2023-04-24T05:28:13;99522.53;;;18.18;58.45
20942;BME280;10630;53.734;10.282;2023-04-24T05:30:39;99524.94;;;18.37;57.62
20942;BME280;10630;53.734;10.282;2023-04-24T05:33:06;99532.00;;;18.03;57.66
20942;BME280;10630;53.734;10.282;2023-04-24T05:35:36;99538.84;;;18.11;57.43
20942;BME280;10630;53.734;10.282;2023-04-24T05:38:05;99531.16;;;18.20;56.96
20942;BME280;10630;53.734;10.282;2023-04-24T05:40:31;99532.75;;;18.55;57.66
20942;BME280;10630;53.734;10.282;2023-04-24T05:42:58;99532.75;;;18.55;56.55
20942;BME280;10630;53.734;10.282;2023-04-24T05:45:25;99527.50;;;18.65;56.34
20942;BME280;10630;53.734;10.282;2023-04-24T05:47:51;99539.25;;;18.59;55.06
20942;BME280;10630;53.734;10.282;2023-04-24T05:50:18;99535.44;;;18.55;55.57
20942;BME280;10630;53.734;10.282;2023-04-24T05:52:47;99533.91;;;17.91;57.04
20942;BME280;10630;53.734;10.282;2023-04-24T05:55:13;99530.94;;;18.61;55.91
20942;BME280;10630;53.734;10.282;2023-04-24T05:57:45;99533.88;;;18.59;55.31
20942;BME280;10630;53.734;10.282;2023-04-24T06:00:12;99530.31;;;18.37;56.38
20942;BME280;10630;53.734;10.282;2023-04-24T06:02:39;99527.91;;;19.46;54.21
20942;BME280;10630;53.734;10.282;2023-04-24T06:05:06;99532.41;;;19.13;54.16
20942;BME280;10630;53.734;10.282;2023-04-24T06:07:34;99540.13;;;19.26;53.69
20942;BME280;10630;53.734;10.282;2023-04-24T06:10:01;99527.94;;;18.96;53.91
20942;BME280;10630;53.734;10.282;2023-04-24T06:12:28;99535.56;;;19.54;52.62
20942;BME280;10630;53.734;10.282;2023-04-24T06:14:55;99544.22;;;19.56;52.82
20942;BME280;10630;53.734;10.282;2023-04-24T06:17:22;99540.44;;;19.30;51.85
20942;BME280;10630;53.734;10.282;2023-04-24T06:19:49;99538.94;;;19.17;52.39
20942;BME280;10630;53.734;10.282;2023-04-24T06:22:17;99541.75;;;19.55;52.38
20942;BME280;10630;53.734;10.282;2023-04-24T06:24:43;99532.84;;;19.05;52.48
20942;BME280;10630;53.734;10.282;2023-04-24T06:27:10;99541.13;;;19.48;51.18
20942;BME280;10630;53.734;10.282;2023-04-24T06:29:40;99540.16;;;19.54;51.33
20942;BME280;10630;53.734;10.282;2023-04-24T06:32:07;99543.03;;;19.47;51.57
20942;BME280;10630;53.734;10.282;2023-04-24T06:34:34;99548.59;;;20.28;50.58
20942;BME280;10630;53.734;10.282;2023-04-24T06:37:01;99549.47;;;20.76;50.26
20942;BME280;10630;53.734;10.282;2023-04-24T06:39:28;99544.34;;;19.99;49.90
20942;BME280;10630;53.734;10.282;2023-04-24T06:41:55;99546.88;;;20.11;50.09
20942;BME280;10630;53.734;10.282;2023-04-24T06:44:22;99542.69;;;20.74;49.53
20942;BME280;10630;53.734;10.282;2023-04-24T06:46:48;99544.16;;;20.54;49.59
20942;BME280;10630;53.734;10.282;2023-04-24T06:49:15;99546.50;;;19.70;49.81
20942;BME280;10630;53.734;10.282;2023-04-24T06:51:42;99544.00;;;19.90;50.14
20942;BME280;10630;53.734;10.282;2023-04-24T06:54:09;99543.28;;;20.43;49.79
20942;BME280;10630;53.734;10.282;2023-04-24T06:56:36;99540.91;;;20.09;49.04
20942;BME280;10630;53.734;10.282;2023-04-24T06:59:03;99543.06;;;20.50;48.96
20942;BME280;10630;53.734;10.282;2023-04-24T07:01:30;99530.13;;;21.10;48.15
20942;BME280;10630;53.734;10.282;2023-04-24T07:03:57;99538.41;;;20.40;48.09
20942;BME280;10630;53.734;10.282;2023-04-24T07:06:24;99538.22;;;21.05;47.36
20942;BME280;10630;53.734;10.282;2023-04-24T07:08:51;99526.44;;;21.47;46.85
20942;BME280;10630;53.734;10.282;2023-04-24T07:11:18;99528.66;;;21.87;47.18
20942;BME280;10630;53.734;10.282;2023-04-24T07:13:46;99528.88;;;21.44;47.09
20942;BME280;10630;53.734;10.282;2023-04-24T07:16:13;99524.63;;;20.79;46.85
20942;BME280;10630;53.734;10.282;2023-04-24T07:18:40;99527.91;;;20.97;47.01
20942;BME280;10630;53.734;10.282;2023-04-24T07:21:07;99526.25;;;20.80;46.62
20942;BME280;10630;53.734;10.282;2023-04-24T07:23:34;99523.97;;;21.35;46.58
20942;BME280;10630;53.734;10.282;2023-04-24T07:26:01;99530.31;;;20.83;47.20
20942;BME280;10630;53.734;10.282;2023-04-24T07:28:28;99532.34;;;20.17;46.86
20942;BME280;10630;53.734;10.282;2023-04-24T07:30:57;99540.34;;;20.07;48.95
20942;BME280;10630;53.734;10.282;2023-04-24T07:33:25;99535.81;;;20.55;47.68
20942;BME280;10630;53.734;10.282;2023-04-24T07:35:51;99546.81;;;20.86;46.81
20942;BME280;10630;53.734;10.282;2023-04-24T07:38:18;99554.41;;;20.95;46.61
20942;BME280;10630;53.734;10.282;2023-04-24T07:40:48;99538.84;;;19.89;47.79
20942;BME280;10630;53.734;10.282;2023-04-24T07:43:15;99552.25;;;20.49;47.74
20942;BME280;10630;53.734;10.282;2023-04-24T07:45:42;99552.41;;;20.32;48.37
20942;BME280;10630;53.734;10.282;2023-04-24T07:48:09;99553.47;;;20.26;47.71
20942;BME280;10630;53.734;10.282;2023-04-24T07:50:36;99545.47;;;20.94;48.45
20942;BME280;10630;53.734;10.282;2023-04-24T07:53:03;99562.03;;;21.03;46.91
20942;BME280;10630;53.734;10.282;2023-04-24T07:55:30;99559.28;;;20.50;47.03
20942;BME280;10630;53.734;10.282;2023-04-24T07:57:57;99551.75;;;20.14;47.91
20942;BME280;10630;53.734;10.282;2023-04-24T08:00:25;99557.13;;;19.82;48.26
20942;BME280;10630;53.734;10.282;2023-04-24T08:02:51;99566.31;;;20.13;47.96
20942;BME280;10630;53.734;10.282;2023-04-24T08:05:18;99564.75;;;20.17;47.51
20942;BME280;10630;53.734;10.282;2023-04-24T08:07:47;99565.22;;;19.82;48.26
20942;BME280;10630;53.734;10.282;2023-04-24T08:10:15;99562.19;;;19.73;49.09
20942;BME280;10630;53.734;10.282;2023-04-24T08:12:43;99554.47;;;20.57;48.09
20942;BME280;10630;53.734;10.282;2023-04-24T08:15:09;99539.88;;;21.16;47.34
20942;BME280;10630;53.734;10.282;2023-04-24T08:17:37;99552.78;;;20.94;45.76
20942;BME280;10630;53.734;10.282;2023-04-24T08:20:05;99552.16;;;20.76;46.58
20942;BME280;10630;53.734;10.282;2023-04-24T08:22:32;99570.72;;;21.10;46.39
20942;BME280;10630;53.734;10.282;2023-04-24T08:24:59;99576.56;;;20.92;45.44
20942;BME280;10630;53.734;10.282;2023-04-24T08:27:26;99565.41;;;21.46;45.68
20942;BME280;10630;53.734;10.282;2023-04-24T08:29:54;99571.16;;;20.92;45.38
20942;BME280;10630;53.734;10.282;2023-04-24T08:32:21;99570.84;;;21.57;44.98
20942;BME280;10630;53.734;10.282;2023-04-24T08:34:48;99580.28;;;20.37;45.92
20942;BME280;10630;53.734;10.282;2023-04-24T08:37:18;99586.69;;;20.69;46.50
20942;BME280;10630;53.734;10.282;2023-04-24T08:39:45;99584.59;;;20.01;46.94
20942;BME280;10630;53.734;10.282;2023-04-24T08:42:11;99597.88;;;20.07;46.73
20942;BME280;10630;53.734;10.282;2023-04-24T08:44:39;99592.66;;;19.96;47.21
20942;BME280;10630;53.734;10.282;2023-04-24T08:47:06;99600.03;;;20.43;47.63
20942;BME280;10630;53.734;10.282;2023-04-24T08:49:35;99603.19;;;20.30;47.19
20942;BME280;10630;53.734;10.282;2023-04-24T08:52:02;99602.84;;;20.59;47.53
20942;BME280;10630;53.734;10.282;2023-04-24T08:54:29;99603.25;;;20.78;46.27
20942;BME280;10630;53.734;10.282;2023-04-24T08:56:59;99605.91;;;20.35;47.39
20942;BME280;10630;53.734;10.282;2023-04-24T08:59:27;99605.41;;;20.76;46.28
20942;BME280;10630;53.734;10.282;2023-04-24T09:01:55;99604.47;;;21.02;46.13
20942;BME280;10630;53.734;10.282;2023-04-24T09:04:23;99597.09;;;20.50;46.90
20942;BME280;10630;53.734;10.282;2023-04-24T09:06:55;99592.28;;;22.00;45.72
20942;BME280;10630;53.734;10.282;2023-04-24T09:09:23;99602.97;;;20.74;46.28
20942;BME280;10630;53.734;10.282;2023-04-24T09:11:50;99597.81;;;21.26;46.41
20942;BME280;10630;53.734;10.282;2023-04-24T09:14:17;99598.81;;;20.23;46.07
20942;BME280;10630;53.734;10.282;2023-04-24T09:16:46;99599.41;;;21.16;46.60
20942;BME280;10630;53.734;10.282;2023-04-24T09:19:13;99590.84;;;21.50;45.76
20942;BME280;10630;53.734;10.282;2023-04-24T09:21:40;99601.09;;;21.33;44.81
20942;BME280;10630;53.734;10.282;2023-04-24T09:24:15;99606.19;;;20.38;46.25
20942;BME280;10630;53.734;10.282;2023-04-24T09:26:43;99613.44;;;20.70;46.32
20942;BME280;10630;53.734;10.282;2023-04-24T09:29:14;99617.31;;;20.75;46.23
20942;BME280;10630;53.734;10.282;2023-04-24T09:31:42;99617.69;;;20.94;45.05
20942;BME280;10630;53.734;10.282;2023-04-24T09:34:09;99615.41;;;20.75;45.27
20942;BME280;10630;53.734;10.282;2023-04-24T09:36:36;99620.00;;;20.75;45.11
20942;BME280;10630;53.734;10.282;2023-04-24T09:39:05;99614.19;;;20.98;45.34
20942;BME280;10630;53.734;10.282;2023-04-24T09:41:31;99620.66;;;21.66;45.07
20942;BME280;10630;53.734;10.282;2023-04-24T09:44:10;99616.53;;;20.79;46.33
20942;BME280;10630;53.734;10.282;2023-04-24T09:46:37;99611.19;;;20.95;44.95
20942;BME280;10630;53.734;10.282;2023-04-24T09:49:07;99622.00;;;20.52;46.01
20942;BME280;10630;53.734;10.282;2023-04-24T09:51:35;99606.63;;;21.00;45.83
20942;BME280;10630;53.734;10.282;2023-04-24T09:54:11;99615.75;;;21.47;44.84
20942;BME280;10630;53.734;10.282;2023-04-24T09:56:43;99612.03;;;21.69;44.18
20942;BME280;10630;53.734;10.282;2023-04-24T09:59:11;99610.69;;;21.82;43.77
20942;BME280;10630;53.734;10.282;2023-04-24T10:01:38;99625.22;;;20.92;44.82
20942;BME280;10630;53.734;10.282;2023-04-24T10:04:15;99618.06;;;20.70;45.39
20942;BME280;10630;53.734;10.282;2023-04-24T10:06:42;99621.47;;;20.93;45.06
20942;BME280;10630;53.734;10.282;2023-04-24T10:09:08;99626.47;;;21.27;44.52
20942;BME280;10630;53.734;10.282;2023-04-24T10:11:39;99627.53;;;21.21;45.03
20942;BME280;10630;53.734;10.282;2023-04-24T10:14:08;99630.50;;;20.71;45.37
20942;BME280;10630;53.734;10.282;2023-04-24T10:16:37;99618.59;;;22.14;44.50
20942;BME280;10630;53.734;10.282;2023-04-24T10:19:06;99625.78;;;20.94;44.91
20942;BME280;10630;53.734;10.282;2023-04-24T10:21:34;99625.00;;;20.61;45.05
20942;BME280;10630;53.734;10.282;2023-04-24T10:24:05;99632.09;;;21.10;45.28
20942;BME280;10630;53.734;10.282;2023-04-24T10:26:33;99631.09;;;20.78;44.60
20942;BME280;10630;53.734;10.282;2023-04-24T10:29:01;99636.03;;;20.16;46.10
20942;BME280;10630;53.734;10.282;2023-04-24T10:31:31;99638.66;;;20.76;46.00
20942;BME280;10630;53.734;10.282;2023-04-24T10:33:58;99642.47;;;21.39;44.95
20942;BME280;10630;53.734;10.282;2023-04-24T10:36:26;99640.84;;;21.32;44.67
20942;BME280;10630;53.734;10.282;2023-04-24T10:38:59;99629.88;;;21.65;44.79
20942;BME280;10630;53.734;10.282;2023-04-24T10:41:26;99645.66;;;22.35;44.13
20942;BME280;10630;53.734;10.282;2023-04-24T10:44:06;99634.75;;;23.07;43.01
20942;BME280;10630;53.734;10.282;2023-04-24T10:46:34;99624.41;;;23.15;41.90
20942;BME280;10630;53.734;10.282;2023-04-24T10:49:07;99637.00;;;22.18;42.73
20942;BME280;10630;53.734;10.282;2023-04-24T10:51:51;99636.31;;;23.29;41.74
20942;BME280;10630;53.734;10.282;2023-04-24T10:54:23;99634.00;;;21.83;43.59
20942;BME280;10630;53.734;10.282;2023-04-24T10:56:50;99650.38;;;21.50;43.42
20942;BME280;10630;53.734;10.282;2023-04-24T10:59:24;99655.97;;;20.43;45.13
20942;BME280;10630;53.734;10.282;2023-04-24T11:01:54;99650.28;;;20.12;46.42
20942;BME280;10630;53.734;10.282;2023-04-24T11:04:31;99655.75;;;20.49;46.26
20942;BME280;10630;53.734;10.282;2023-04-24T11:06:58;99643.78;;;20.78;45.62
20942;BME280;10630;53.734;10.282;2023-04-24T11:09:27;99649.41;;;20.71;45.74
20942;BME280;10630;53.734;10.282;2023-04-24T11:12:04;99644.50;;;21.64;45.60
20942;BME280;10630;53.734;10.282;2023-04-24T11:17:34;99654.47;;;21.00;45.04
20942;BME280;10630;53.734;10.282;2023-04-24T11:20:05;99656.47;;;20.72;45.51
20942;BME280;10630;53.734;10.282;2023-04-24T11:22:55;99649.63;;;20.27;45.79
20942;BME280;10630;53.734;10.282;2023-04-24T11:25:23;99647.34;;;20.78;45.61
20942;BME280;10630;53.734;10.282;2023-04-24T11:27:51;99651.25;;;20.60;46.07
20942;BME280;10630;53.734;10.282;2023-04-24T11:30:29;99647.84;;;19.83;46.78
20942;BME280;10630;53.734;10.282;2023-04-24T11:32:56;99644.59;;;20.08;46.80
20942;BME280;10630;53.734;10.282;2023-04-24T11:35:29;99645.31;;;20.31;46.15
20942;BME280;10630;53.734;10.282;2023-04-24T11:37:57;99645.44;;;20.46;46.19
20942;BME280;10630;53.734;10.282;2023-04-24T11:40:28;99647.69;;;20.54;46.09
20942;BME280;10630;53.734;10.282;2023-04-24T11:42:54;99642.53;;;21.44;45.77
20942;BME280;10630;53.734;10.282;2023-04-24T11:45:23;99632.13;;;22.09;44.98
20942;BME280;10630;53.734;10.282;2023-04-24T11:47:50;99634.56;;;22.21;42.77
20942;BME280;10630;53.734;10.282;2023-04-24T11:50:19;99638.63;;;22.24;42.51
20942;BME280;10630;53.734;10.282;2023-04-24T11:52:46;99639.16;;;22.21;43.61
20942;BME280;10630;53.734;10.282;2023-04-24T11:57:47;99644.59;;;22.31;42.78
20942;BME280;10630;53.734;10.282;2023-04-24T12:00:21;99640.19;;;23.18;41.09
20942;BME280;10630;53.734;10.282;2023-04-24T12:02:48;99642.41;;;21.92;42.08
20942;BME280;10630;53.734;10.282;2023-04-24T12:05:20;99634.25;;;21.81;42.03
20942;BME280;10630;53.734;10.282;2023-04-24T12:07:48;99643.72;;;21.10;43.95
20942;BME280;10630;53.734;10.282;2023-04-24T12:10:19;99650.22;;;21.14;43.17
20942;BME280;10630;53.734;10.282;2023-04-24T12:12:46;99645.00;;;19.95;44.56
20942;BME280;10630;53.734;10.282;2023-04-24T12:15:16;99648.91;;;20.36;44.76
20942;BME280;10630;53.734;10.282;2023-04-24T12:17:44;99645.50;;;20.89;44.28
20942;BME280;10630;53.734;10.282;2023-04-24T12:20:11;99650.38;;;20.54;43.49
20942;BME280;10630;53.734;10.282;2023-04-24T12:22:52;99641.75;;;20.95;43.74
20942;BME280;10630;53.734;10.282;2023-04-24T12:25:25;99635.75;;;21.51;43.04
20942;BME280;10630;53.734;10.282;2023-04-24T12:30:32;99619.06;;;21.80;42.38
20942;BME280;10630;53.734;10.282;2023-04-24T12:32:59;99643.13;;;21.61;42.27
20942;BME280;10630;53.734;10.282;2023-04-24T12:35:30;99643.53;;;21.22;41.82
20942;BME280;10630;53.734;10.282;2023-04-24T12:38:05;99638.03;;;21.07;41.99
20942;BME280;10630;53.734;10.282;2023-04-24T12:40:32;99635.94;;;21.24;42.60
20942;BME280;10630;53.734;10.282;2023-04-24T12:42:59;99649.72;;;21.17;42.42
20942;BME280;10630;53.734;10.282;2023-04-24T12:45:26;99646.38;;;20.62;42.22
20942;BME280;10630;53.734;10.282;2023-04-24T12:47:54;99641.13;;;21.36;42.86
20942;BME280;10630;53.734;10.282;2023-04-24T12:50:21;99635.53;;;21.53;42.15
20942;BME280;10630;53.734;10.282;2023-04-24T12:52:48;99643.31;;;21.49;41.42
20942;BME280;10630;53.734;10.282;2023-04-24T12:55:15;99632.91;;;22.00;40.88
20942;BME280;10630;53.734;10.282;2023-04-24T12:57:42;99632.66;;;21.86;40.96
20942;BME280;10630;53.734;10.282;2023-04-24T13:00:09;99635.09;;;22.18;40.52
20942;BME280;10630;53.734;10.282;2023-04-24T13:02:36;99638.59;;;21.98;40.55